createdAt,value
2024-05-09T00:02:20.645Z,15.20
2024-05-09T00:04:53.051Z,15.67
2024-05-09T00:07:23.383Z,12.30
2024-05-09T00:09:52.995Z,9.93
2024-05-09T00:12:22.659Z,8.23
2024-05-09T00:14:52.301Z,10.40
2024-05-09T00:17:22.169Z,9.13
2024-05-09T00:19:54.471Z,7.37
2024-05-09T00:22:24.165Z,9.00
2024-05-09T00:24:53.808Z,7.87
2024-05-09T00:27:23.480Z,10.03
2024-05-09T00:29:53.078Z,9.77
2024-05-09T00:32:22.827Z,9.53
2024-05-09T00:34:55.238Z,7.70
2024-05-09T00:37:24.901Z,9.90
2024-05-09T00:39:54.547Z,8.93
2024-05-09T00:42:24.189Z,9.23
2024-05-09T00:44:53.789Z,8.07
2024-05-09T00:47:24.163Z,8.70
2024-05-09T00:49:56.809Z,8.90
2024-05-09T00:52:27.029Z,8.47
2024-05-09T00:54:57.343Z,7.27
2024-05-09T00:57:28.207Z,8.47
2024-05-09T00:59:58.418Z,9.37
2024-05-09T01:02:28.629Z,9.70
2024-05-09T01:05:01.113Z,9.63
2024-05-09T01:07:31.430Z,10.73
2024-05-09T01:10:01.039Z,8.43
2024-05-09T01:12:30.732Z,9.37
2024-05-09T01:15:00.627Z,8.43
2024-05-09T01:17:30.630Z,7.77
2024-05-09T01:20:04.247Z,7.53
2024-05-09T01:22:38.393Z,8.97
2024-05-09T01:25:10.872Z,8.03
2024-05-09T01:27:40.512Z,10.07
2024-05-09T01:30:17.221Z,9.63
2024-05-09T01:32:50.979Z,7.00
2024-05-09T01:35:23.289Z,8.33
2024-05-09T01:37:53.348Z,8.87
2024-05-09T01:40:35.513Z,10.47
2024-05-09T01:43:09.071Z,7.17
2024-05-09T01:45:40.077Z,7.17
2024-05-09T01:48:11.262Z,7.87
2024-05-09T01:50:43.062Z,7.23
2024-05-09T01:53:14.734Z,8.03
2024-05-09T01:55:47.598Z,8.90
2024-05-09T01:58:17.836Z,9.37
2024-05-09T02:00:48.402Z,10.97
2024-05-09T02:03:18.548Z,11.67
2024-05-09T02:05:49.783Z,9.50
2024-05-09T02:08:21.323Z,9.90
2024-05-09T02:10:54.175Z,11.27
2024-05-09T02:13:23.961Z,12.03
2024-05-09T02:15:53.783Z,9.87
2024-05-09T02:18:23.714Z,10.70
2024-05-09T02:20:53.578Z,12.43
2024-05-09T02:23:23.285Z,9.33
2024-05-09T02:25:55.574Z,10.57
2024-05-09T02:28:25.304Z,9.33
2024-05-09T02:30:54.927Z,12.03
2024-05-09T02:33:24.773Z,9.30
2024-05-09T02:35:51.964Z,10.07
2024-05-09T02:38:21.702Z,8.73
2024-05-09T02:40:48.796Z,9.40
2024-05-09T02:43:21.067Z,9.17
2024-05-09T02:45:48.172Z,7.90
2024-05-09T02:48:17.979Z,7.07
2024-05-09T02:50:45.292Z,7.03
2024-05-09T02:53:15.363Z,7.73
2024-05-09T02:55:43.166Z,8.80
2024-05-09T02:58:13.757Z,9.33
2024-05-09T03:00:43.525Z,8.87
2024-05-09T03:03:15.408Z,9.50
2024-05-09T03:05:43.355Z,8.17
2024-05-09T03:08:13.513Z,10.10
2024-05-09T03:10:40.621Z,10.80
2024-05-09T03:13:11.442Z,7.23
2024-05-09T03:15:38.531Z,6.90
2024-05-09T03:18:12.220Z,9.37
2024-05-09T03:20:40.102Z,7.07
2024-05-09T03:23:10.719Z,8.73
2024-05-09T03:25:37.985Z,7.80
2024-05-09T03:28:08.471Z,8.40
2024-05-09T03:30:40.981Z,7.23
2024-05-09T03:33:19.104Z,7.43
2024-05-09T03:35:48.254Z,6.30
2024-05-09T03:38:18.555Z,6.63
2024-05-09T03:40:49.397Z,6.93
2024-05-09T03:43:20.360Z,10.23
2024-05-09T03:45:51.857Z,8.67
2024-05-09T03:48:21.808Z,7.83
2024-05-09T03:50:51.760Z,9.43
2024-05-09T03:53:19.217Z,6.87
2024-05-09T03:55:50.169Z,8.07
2024-05-09T03:58:18.903Z,8.40
2024-05-09T04:00:48.711Z,7.97
2024-05-09T04:03:16.188Z,10.33
2024-05-09T04:05:48.746Z,7.17
2024-05-09T04:08:16.147Z,5.63
2024-05-09T04:10:46.113Z,6.00
2024-05-09T04:13:13.285Z,7.27
2024-05-09T04:15:42.943Z,7.83
2024-05-09T04:18:10.130Z,7.53
2024-05-09T04:20:41.145Z,8.93
2024-05-09T04:23:12.440Z,8.00
2024-05-09T04:25:45.258Z,10.17
2024-05-09T04:28:15.516Z,8.53
2024-05-09T04:30:43.274Z,8.77
2024-05-09T04:33:14.674Z,7.90
2024-05-09T04:35:43.477Z,10.00
2024-05-09T04:38:16.394Z,6.83
2024-05-09T04:40:43.676Z,9.97
2024-05-09T04:43:18.961Z,9.47
2024-05-09T04:45:46.416Z,6.00
2024-05-09T04:48:16.695Z,8.07
2024-05-09T04:50:44.274Z,7.37
2024-05-09T04:53:18.632Z,6.80
2024-05-09T04:55:46.032Z,6.93
2024-05-09T04:58:15.872Z,6.87
2024-05-09T05:00:44.080Z,5.57
2024-05-09T05:03:16.042Z,6.50
2024-05-09T05:05:45.360Z,7.20
2024-05-09T05:08:19.853Z,6.47
2024-05-09T05:10:48.560Z,4.93
2024-05-09T05:13:20.956Z,7.53
2024-05-09T05:15:51.033Z,6.17
2024-05-09T05:18:21.054Z,5.23
2024-05-09T05:20:48.668Z,6.30
2024-05-09T05:23:22.258Z,5.90
2024-05-09T05:25:50.428Z,5.00
2024-05-09T05:28:20.190Z,5.67
2024-05-09T05:30:47.528Z,5.57
2024-05-09T05:33:19.231Z,5.83
2024-05-09T05:35:46.838Z,5.00
2024-05-09T05:38:16.669Z,6.17
2024-05-09T05:40:46.426Z,6.93
2024-05-09T05:43:20.431Z,7.50
2024-05-09T05:45:47.600Z,6.83
2024-05-09T05:48:18.897Z,7.07
2024-05-09T05:50:46.523Z,8.33
2024-05-09T05:53:16.459Z,6.93
2024-05-09T05:55:46.289Z,6.07
2024-05-09T05:58:16.447Z,8.33
2024-05-09T06:00:43.640Z,6.37
2024-05-09T06:03:15.006Z,5.67
2024-05-09T06:05:43.948Z,6.83
2024-05-09T06:08:14.422Z,7.17
2024-05-09T06:10:42.450Z,6.90
2024-05-09T06:13:15.740Z,8.03
2024-05-09T06:15:43.653Z,7.97
2024-05-09T06:18:13.868Z,7.50
2024-05-09T06:20:43.146Z,6.70
2024-05-09T06:23:13.744Z,5.67
2024-05-09T06:25:41.762Z,6.03
2024-05-09T06:28:14.110Z,6.07
2024-05-09T06:30:42.690Z,5.70
2024-05-09T06:33:15.952Z,5.87
2024-05-09T06:35:44.063Z,5.70
2024-05-09T06:38:14.147Z,6.83
2024-05-09T06:40:43.665Z,5.40
2024-05-09T06:43:19.409Z,7.07
2024-05-09T06:45:47.956Z,6.00
2024-05-09T06:48:20.643Z,6.87
2024-05-09T06:50:48.497Z,5.93
2024-05-09T06:53:19.399Z,5.70
2024-05-09T06:55:46.507Z,6.87
2024-05-09T06:58:18.858Z,8.07
2024-05-09T07:00:46.065Z,7.23
2024-05-09T07:03:18.789Z,6.03
2024-05-09T07:05:48.322Z,5.83
2024-05-09T07:08:19.388Z,6.97
2024-05-09T07:10:47.007Z,7.97
2024-05-09T07:13:19.463Z,6.50
2024-05-09T07:15:46.549Z,6.10
2024-05-09T07:18:19.965Z,5.63
2024-05-09T07:20:48.562Z,7.20
2024-05-09T07:23:19.293Z,6.57
2024-05-09T07:25:46.682Z,6.07
2024-05-09T07:28:20.084Z,7.07
2024-05-09T07:30:50.004Z,5.83
2024-05-09T07:33:17.770Z,7.60
2024-05-09T07:35:47.754Z,6.47
2024-05-09T07:38:15.054Z,7.73
2024-05-09T07:40:44.832Z,7.13
2024-05-09T07:43:12.898Z,6.43
2024-05-09T07:45:52.086Z,5.97
2024-05-09T07:52:38.510Z,8.07
2024-05-09T07:53:46.415Z,6.63
2024-05-09T07:56:21.861Z,6.77
2024-05-09T07:58:51.323Z,6.27
2024-05-09T08:01:25.642Z,6.90
2024-05-09T08:03:53.277Z,6.23
2024-05-09T08:06:23.381Z,6.33
2024-05-09T08:08:50.526Z,5.50
2024-05-09T08:11:20.408Z,5.47
2024-05-09T08:13:47.511Z,5.63
2024-05-09T08:16:17.531Z,6.63
2024-05-09T08:18:47.351Z,5.40
2024-05-09T08:21:18.402Z,4.17
2024-05-09T08:23:45.453Z,5.93
2024-05-09T08:26:15.207Z,5.23
2024-05-09T08:28:42.234Z,5.33
2024-05-09T08:31:12.678Z,6.57
2024-05-09T08:33:47.800Z,4.90
2024-05-09T08:36:18.520Z,4.53
2024-05-09T08:38:45.739Z,4.33
2024-05-09T08:41:17.170Z,4.93
2024-05-09T08:43:44.677Z,3.50
2024-05-09T08:46:15.712Z,4.53
2024-05-09T08:48:48.041Z,3.83
2024-05-09T08:51:18.291Z,3.50
2024-05-09T08:53:45.590Z,4.30
2024-05-09T08:56:17.409Z,4.57
2024-05-09T08:58:45.333Z,3.78
2024-05-09T09:01:17.073Z,2.63
2024-05-09T09:03:48.695Z,3.40
2024-05-09T09:06:23.631Z,3.17
2024-05-09T09:08:51.109Z,5.88
2024-05-09T09:11:20.805Z,2.15
2024-05-09T09:13:47.876Z,2.17
2024-05-09T09:16:17.707Z,4.82
2024-05-09T09:18:47.538Z,3.22
2024-05-09T09:21:17.228Z,3.55
2024-05-09T09:23:44.314Z,4.13
2024-05-09T09:26:18.508Z,3.50
2024-05-09T09:28:45.645Z,1.92
2024-05-09T09:31:15.574Z,2.30
2024-05-09T09:33:42.890Z,4.53
2024-05-09T09:36:15.800Z,2.42
2024-05-09T09:38:43.711Z,2.13
2024-05-09T09:41:15.652Z,1.77
2024-05-09T09:43:42.913Z,2.67
2024-05-09T09:46:14.070Z,2.00
2024-05-09T09:48:42.545Z,1.58
2024-05-09T09:51:16.336Z,1.42
2024-05-09T09:53:44.631Z,2.97
2024-05-09T09:56:15.790Z,3.08
2024-05-09T09:58:45.308Z,2.92
2024-05-09T10:01:15.040Z,2.63
2024-05-09T10:03:43.100Z,2.95
2024-05-09T10:06:16.828Z,2.88
2024-05-09T10:08:46.916Z,1.95
2024-05-09T10:11:16.592Z,3.72
2024-05-09T10:13:44.514Z,1.90
2024-05-09T10:16:14.509Z,2.42
2024-05-09T10:18:42.140Z,1.35
2024-05-09T10:21:24.100Z,1.38
2024-05-09T10:23:59.043Z,2.45
2024-05-09T10:26:35.502Z,2.78
2024-05-09T10:29:13.874Z,1.70
2024-05-09T10:31:42.036Z,2.30
2024-05-09T10:34:19.887Z,2.08
2024-05-09T10:36:52.231Z,2.60
2024-05-09T10:39:23.107Z,1.77
2024-05-09T10:41:50.188Z,2.72
2024-05-09T10:44:19.969Z,1.55
2024-05-09T10:46:47.477Z,1.50
2024-05-09T10:49:17.484Z,1.48
2024-05-09T10:51:45.170Z,1.98
2024-05-09T10:54:17.497Z,4.65
2024-05-09T10:56:44.559Z,2.47
2024-05-09T10:59:15.580Z,3.03
2024-05-09T11:01:42.845Z,2.25
2024-05-09T11:04:12.879Z,2.05
2024-05-09T11:06:40.551Z,1.77
2024-05-09T11:09:10.384Z,2.05
2024-05-09T11:11:40.356Z,1.70
2024-05-09T11:14:14.865Z,2.35
2024-05-09T11:16:41.974Z,2.40
2024-05-09T11:19:15.553Z,1.55
2024-05-09T11:21:42.984Z,2.55
2024-05-09T11:24:12.693Z,1.88
2024-05-09T11:26:43.150Z,2.30
2024-05-09T11:29:13.810Z,3.97
2024-05-09T11:31:46.363Z,2.50
2024-05-09T11:34:16.447Z,2.28
2024-05-09T11:36:43.724Z,2.80
2024-05-09T11:39:14.695Z,1.63
2024-05-09T11:41:44.464Z,2.28
2024-05-09T11:44:14.160Z,3.83
2024-05-09T11:46:41.328Z,4.22
2024-05-09T11:49:12.476Z,2.17
2024-05-09T11:51:39.875Z,2.50
2024-05-09T11:54:09.514Z,4.28
2024-05-09T11:56:36.703Z,2.75
2024-05-09T11:59:08.977Z,2.38
2024-05-09T12:01:36.234Z,2.45
2024-05-09T12:04:06.569Z,4.13
2024-05-09T12:06:33.963Z,2.35
2024-05-09T12:09:03.689Z,2.42
2024-05-09T12:11:30.838Z,2.25
2024-05-09T12:14:00.488Z,2.75
2024-05-09T12:16:30.345Z,2.40
2024-05-09T12:19:00.192Z,2.03
2024-05-09T12:21:27.237Z,2.30
2024-05-09T12:23:56.910Z,3.58
2024-05-09T12:26:24.014Z,2.58
2024-05-09T12:28:53.890Z,2.20
2024-05-09T12:31:21.092Z,4.10
2024-05-09T12:33:54.462Z,1.83
2024-05-09T12:36:21.573Z,2.92
2024-05-09T12:38:51.602Z,4.05
2024-05-09T12:41:18.664Z,2.25
2024-05-09T12:43:49.586Z,2.95
2024-05-09T12:46:16.719Z,1.75
2024-05-09T12:48:46.558Z,2.58
2024-05-09T12:51:16.299Z,2.22
2024-05-09T12:53:45.936Z,1.48
2024-05-09T12:56:13.017Z,2.78
2024-05-09T12:58:42.693Z,2.53
2024-05-09T13:01:09.810Z,2.45
2024-05-09T13:03:39.770Z,3.38
2024-05-09T13:06:06.986Z,2.30
2024-05-09T13:08:39.305Z,1.23
2024-05-09T13:11:06.468Z,2.42
2024-05-09T13:13:36.102Z,1.63
2024-05-09T13:16:03.566Z,1.15
2024-05-09T13:18:33.445Z,0.88
2024-05-09T13:21:00.695Z,2.38
2024-05-09T13:23:30.806Z,2.80
2024-05-09T13:26:00.526Z,2.03
2024-05-09T13:28:32.150Z,1.67
2024-05-09T13:30:59.372Z,4.10
2024-05-09T13:33:29.174Z,2.10
2024-05-09T13:35:56.660Z,3.50
2024-05-09T13:38:26.708Z,2.00
2024-05-09T13:40:53.803Z,1.95
2024-05-09T13:43:26.174Z,3.17
2024-05-09T13:45:55.517Z,1.60
2024-05-09T13:48:25.472Z,1.60
2024-05-09T13:50:52.630Z,2.22
2024-05-09T13:53:22.730Z,2.50
2024-05-09T13:55:50.222Z,2.13
2024-05-09T13:58:20.149Z,2.40
2024-05-09T14:00:49.913Z,3.00
2024-05-09T14:03:21.032Z,3.10
2024-05-09T14:05:50.091Z,1.60
2024-05-09T14:08:22.266Z,3.80
2024-05-09T14:10:50.108Z,2.33
2024-05-09T14:13:20.331Z,2.45
2024-05-09T14:15:50.301Z,4.90
2024-05-09T14:18:20.488Z,3.28
2024-05-09T14:20:47.611Z,1.60
2024-05-09T14:23:17.301Z,3.30
2024-05-09T14:25:46.005Z,1.85
2024-05-09T14:28:17.055Z,3.22
2024-05-09T14:30:44.182Z,1.80
2024-05-09T14:33:23.409Z,1.70
2024-05-09T14:35:50.801Z,2.28
2024-05-09T14:38:20.591Z,2.10
2024-05-09T14:40:47.717Z,2.28
2024-05-09T14:43:17.902Z,1.77
2024-05-09T14:45:45.606Z,2.00
2024-05-09T14:48:19.778Z,1.58
2024-05-09T14:50:47.986Z,2.25
2024-05-09T14:53:17.626Z,1.60
2024-05-09T14:55:45.186Z,3.35
2024-05-09T14:58:15.252Z,1.65
2024-05-09T15:00:46.656Z,2.58
2024-05-09T15:03:22.894Z,3.47
2024-05-09T15:05:51.349Z,1.60
2024-05-09T15:08:22.072Z,2.40
2024-05-09T15:10:50.272Z,4.57
2024-05-09T15:13:20.792Z,1.58
2024-05-09T15:15:48.686Z,2.42
2024-05-09T15:18:19.027Z,2.03
2024-05-09T15:20:49.163Z,2.55
2024-05-09T15:23:18.991Z,2.53
2024-05-09T15:25:46.234Z,1.70
2024-05-09T15:28:16.420Z,2.17
2024-05-09T15:30:46.364Z,2.15
2024-05-09T15:33:16.823Z,2.65
2024-05-09T15:35:46.167Z,2.80
2024-05-09T15:38:18.863Z,1.77
2024-05-09T15:40:46.218Z,3.00
2024-05-09T15:43:16.199Z,2.28
2024-05-09T15:45:43.367Z,2.63
2024-05-09T15:48:14.201Z,3.95
2024-05-09T15:50:42.651Z,2.83
2024-05-09T15:53:13.980Z,1.83
2024-05-09T15:55:43.879Z,3.40
2024-05-09T15:58:13.763Z,2.63
2024-05-09T16:00:44.025Z,3.13
2024-05-09T16:03:15.803Z,1.58
2024-05-09T16:05:44.316Z,2.25
2024-05-09T16:08:14.963Z,4.32
2024-05-09T16:10:47.122Z,2.83
2024-05-09T16:13:19.507Z,3.30
2024-05-09T16:15:46.971Z,2.90
2024-05-09T16:18:17.040Z,1.85
2024-05-09T16:20:46.292Z,1.10
2024-05-09T16:23:18.114Z,2.30
2024-05-09T16:25:48.794Z,2.58
2024-05-09T16:28:19.327Z,3.53
2024-05-09T16:30:46.894Z,2.45
2024-05-09T16:33:19.385Z,4.55
2024-05-09T16:35:46.782Z,2.45
2024-05-09T16:38:16.502Z,1.88
2024-05-09T16:40:43.839Z,1.65
2024-05-09T16:43:16.461Z,2.33
2024-05-09T16:45:44.701Z,3.10
2024-05-09T16:48:15.420Z,2.47
2024-05-09T16:50:42.830Z,3.17
2024-05-09T16:53:13.559Z,3.03
2024-05-09T16:55:41.443Z,2.15
2024-05-09T16:58:12.492Z,1.48
2024-05-09T17:00:43.858Z,2.95
2024-05-09T17:03:16.316Z,2.50
2024-05-09T17:05:45.596Z,4.05
2024-05-09T17:08:17.741Z,1.75
2024-05-09T17:10:45.076Z,1.88
2024-05-09T17:13:14.872Z,3.72
2024-05-09T17:15:47.634Z,5.15
2024-05-09T17:18:18.063Z,1.70
2024-05-09T17:20:49.070Z,2.00
2024-05-09T17:23:16.182Z,2.43
2024-05-09T17:25:46.004Z,1.97
2024-05-09T17:28:13.683Z,2.10
2024-05-09T17:30:43.760Z,2.87
2024-05-09T17:33:14.005Z,2.47
2024-05-09T17:35:45.718Z,2.10
2024-05-09T17:38:13.078Z,3.67
2024-05-09T17:40:42.779Z,1.57
2024-05-09T17:43:10.862Z,3.73
2024-05-09T17:45:44.091Z,2.73
2024-05-09T17:48:14.026Z,2.57
2024-05-09T17:50:44.051Z,2.87
2024-05-09T17:53:11.517Z,2.57
2024-05-09T17:55:41.683Z,2.80
2024-05-09T17:58:09.806Z,2.57
2024-05-09T18:00:42.073Z,3.50
2024-05-09T18:03:11.980Z,2.07
2024-05-09T18:05:45.763Z,3.73
2024-05-09T18:08:13.652Z,6.40
2024-05-09T18:10:44.192Z,3.13
2024-05-09T18:13:12.856Z,5.03
2024-05-09T18:15:43.370Z,4.30
2024-05-09T18:18:12.578Z,4.07
2024-05-09T18:20:46.246Z,2.37
2024-05-09T18:23:16.658Z,3.70
2024-05-09T18:25:48.196Z,3.10
2024-05-09T18:28:16.936Z,4.40
2024-05-09T18:30:47.351Z,3.63
2024-05-09T18:33:14.902Z,3.67
2024-05-09T18:35:48.731Z,3.87
2024-05-09T18:38:16.100Z,2.53
2024-05-09T18:40:48.534Z,4.27
2024-05-09T18:43:16.877Z,4.03
2024-05-09T18:45:47.483Z,3.40
2024-05-09T18:48:15.495Z,5.70
2024-05-09T18:50:48.103Z,3.07
2024-05-09T18:53:16.058Z,3.33
2024-05-09T18:55:45.873Z,3.27
2024-05-09T18:58:13.382Z,3.30
2024-05-09T19:00:45.891Z,4.07
2024-05-09T19:03:16.030Z,5.17
2024-05-09T19:05:48.752Z,4.73
2024-05-09T19:08:18.853Z,2.50
2024-05-09T19:10:52.346Z,4.60
2024-05-09T19:13:19.580Z,3.40
2024-05-09T19:15:49.298Z,3.10
2024-05-09T19:18:17.273Z,3.20
2024-05-09T19:20:49.749Z,3.07
2024-05-09T19:23:16.880Z,4.87
2024-05-09T19:25:46.564Z,3.63
2024-05-09T19:28:13.751Z,2.67
2024-05-09T19:30:43.518Z,3.43
2024-05-09T19:33:12.473Z,4.20
2024-05-09T19:35:43.617Z,3.33
2024-05-09T19:38:13.644Z,3.70
2024-05-09T19:40:43.787Z,4.03
2024-05-09T19:43:11.167Z,4.97
2024-05-09T19:45:41.117Z,2.60
2024-05-09T19:48:08.894Z,5.30
2024-05-09T19:50:43.168Z,4.23
2024-05-09T19:53:14.717Z,4.30
2024-05-09T19:55:45.031Z,3.50
2024-05-09T19:58:13.053Z,2.90
2024-05-09T20:00:44.299Z,5.30
2024-05-09T20:03:13.182Z,4.83
2024-05-09T20:05:45.548Z,5.10
2024-05-09T20:08:16.269Z,3.53
2024-05-09T20:10:46.079Z,5.30
2024-05-09T20:13:13.734Z,3.50
2024-05-09T20:15:43.551Z,4.13
2024-05-09T20:18:11.347Z,3.00
2024-05-09T20:20:43.569Z,2.80
2024-05-09T20:23:12.728Z,5.13
2024-05-09T20:25:45.266Z,3.50
2024-05-09T20:28:12.423Z,5.57
2024-05-09T20:30:42.273Z,3.50
2024-05-09T20:33:10.119Z,3.73
2024-05-09T20:35:40.399Z,3.63
2024-05-09T20:38:07.783Z,5.67
2024-05-09T20:40:39.311Z,3.83
2024-05-09T20:43:10.561Z,3.77
2024-05-09T20:45:40.971Z,5.10
2024-05-09T20:48:09.629Z,4.20
2024-05-09T20:50:41.974Z,8.03
2024-05-09T20:53:11.454Z,7.10
2024-05-09T20:55:41.532Z,5.93
2024-05-09T20:58:11.562Z,4.10
2024-05-09T21:00:44.593Z,6.83
2024-05-09T21:03:15.593Z,4.57
2024-05-09T21:05:47.242Z,5.27
2024-05-09T21:08:15.229Z,5.10
2024-05-09T21:10:45.176Z,6.20
2024-05-09T21:13:15.187Z,4.33
2024-05-09T21:15:44.936Z,4.87
2024-05-09T21:18:12.191Z,5.03
2024-05-09T21:20:41.846Z,6.40
2024-05-09T21:23:08.906Z,5.10
2024-05-09T21:25:38.682Z,3.73
2024-05-09T21:28:06.327Z,3.87
2024-05-09T21:30:42.460Z,4.87
2024-05-09T21:33:12.538Z,4.37
2024-05-09T21:35:44.653Z,3.90
2024-05-09T21:38:13.519Z,3.00
2024-05-09T21:40:43.701Z,3.73
2024-05-09T21:43:11.109Z,4.27
2024-05-09T21:45:43.530Z,3.73
2024-05-09T21:48:12.894Z,2.87
2024-05-09T21:50:42.926Z,3.23
2024-05-09T21:53:10.808Z,5.43
2024-05-09T21:55:40.574Z,3.67
2024-05-09T21:58:07.862Z,4.43
2024-05-09T22:00:39.355Z,3.40
2024-05-09T22:03:11.094Z,5.53
2024-05-09T22:05:44.137Z,4.20
2024-05-09T22:08:11.689Z,5.70
2024-05-09T22:10:41.421Z,5.23
2024-05-09T22:13:09.075Z,5.90
2024-05-09T22:15:40.657Z,3.07
2024-05-09T22:18:11.580Z,3.23
2024-05-09T22:20:45.581Z,3.10
2024-05-09T22:23:13.933Z,5.33
2024-05-09T22:25:43.965Z,4.57
2024-05-09T22:28:15.266Z,7.97
2024-05-09T22:30:46.732Z,5.20
2024-05-09T22:33:17.351Z,4.43
2024-05-09T22:35:47.441Z,4.07
2024-05-09T22:38:14.616Z,5.63
2024-05-09T22:40:48.398Z,3.23
2024-05-09T22:43:19.259Z,3.93
2024-05-09T22:45:50.005Z,3.80
2024-05-09T22:48:20.234Z,4.73
2024-05-09T22:50:50.035Z,3.23
2024-05-09T22:53:18.078Z,4.57
2024-05-09T22:55:47.702Z,5.03
2024-05-09T22:58:14.743Z,5.07
2024-05-09T23:00:44.588Z,6.37
2024-05-09T23:03:11.795Z,4.37
2024-05-09T23:05:44.308Z,6.97
2024-05-09T23:08:11.410Z,4.77
2024-05-09T23:10:41.145Z,4.20
2024-05-09T23:13:08.643Z,3.67
2024-05-09T23:15:39.374Z,3.63
2024-05-09T23:18:07.378Z,4.73
2024-05-09T23:20:40.177Z,4.80
2024-05-09T23:23:11.700Z,5.03
2024-05-09T23:25:43.422Z,5.47
2024-05-09T23:28:10.920Z,6.20
2024-05-09T23:30:41.826Z,4.83
2024-05-09T23:33:10.990Z,4.27
2024-05-09T23:35:40.964Z,5.17
2024-05-09T23:38:10.683Z,4.80
2024-05-09T23:40:41.696Z,6.27
2024-05-09T23:43:10.894Z,4.50
2024-05-09T23:45:41.631Z,4.10
2024-05-09T23:48:10.306Z,6.43
2024-05-09T23:50:40.875Z,7.27
2024-05-09T23:53:11.406Z,8.00
2024-05-09T23:55:41.615Z,14.40
2024-05-09T23:58:09.140Z,24.57
